sensor_id;sensor_type;location;lat;lon;timestamp;P1;durP1;ratioP1;P2;durP2;ratioP2
4650;SDS011;2338;49.602;8.722;2023-02-22T00:02:43;14.02;;;8.90;;
4650;SDS011;2338;49.602;8.722;2023-02-22T00:05:31;11.80;;;9.52;;
4650;SDS011;2338;49.602;8.722;2023-02-22T00:08:18;9.82;;;8.23;;
4650;SDS011;2338;49.602;8.722;2023-02-22T00:11:06;11.53;;;8.43;;
4650;SDS011;2338;49.602;8.722;2023-02-22T00:13:52;14.02;;;8.52;;
4650;SDS011;2338;49.602;8.722;2023-02-22T00:16:40;10.70;;;8.70;;
4650;SDS011;2338;49.602;8.722;2023-02-22T00:19:25;11.52;;;8.88;;
4650;SDS011;2338;49.602;8.722;2023-02-22T00:22:13;21.85;;;8.65;;
4650;SDS011;2338;49.602;8.722;2023-02-22T00:25:02;9.82;;;7.70;;
4650;SDS011;2338;49.602;8.722;2023-02-22T00:27:48;11.55;;;8.02;;
4650;SDS011;2338;49.602;8.722;2023-02-22T00:30:35;11.90;;;8.80;;
4650;SDS011;2338;49.602;8.722;2023-02-22T00:33:21;15.00;;;9.20;;
4650;SDS011;2338;49.602;8.722;2023-02-22T00:36:08;13.20;;;8.57;;
4650;SDS011;2338;49.602;8.722;2023-02-22T00:38:54;11.60;;;8.50;;
4650;SDS011;2338;49.602;8.722;2023-02-22T00:41:42;12.90;;;8.98;;
4650;SDS011;2338;49.602;8.722;2023-02-22T00:44:28;12.05;;;9.07;;
4650;SDS011;2338;49.602;8.722;2023-02-22T00:47:17;14.10;;;9.20;;
4650;SDS011;2338;49.602;8.722;2023-02-22T00:50:03;12.37;;;7.93;;
4650;SDS011;2338;49.602;8.722;2023-02-22T00:52:49;10.63;;;7.68;;
4650;SDS011;2338;49.602;8.722;2023-02-22T00:55:36;15.55;;;8.52;;
4650;SDS011;2338;49.602;8.722;2023-02-22T00:58:23;14.98;;;8.50;;
4650;SDS011;2338;49.602;8.722;2023-02-22T01:01:09;11.35;;;8.27;;
4650;SDS011;2338;49.602;8.722;2023-02-22T01:03:55;14.00;;;8.82;;
4650;SDS011;2338;49.602;8.722;2023-02-22T01:06:41;12.48;;;7.60;;
4650;SDS011;2338;49.602;8.722;2023-02-22T01:09:27;10.90;;;7.70;;
4650;SDS011;2338;49.602;8.722;2023-02-22T01:12:13;15.75;;;6.85;;
4650;SDS011;2338;49.602;8.722;2023-02-22T01:15:01;8.95;;;7.53;;
4650;SDS011;2338;49.602;8.722;2023-02-22T01:17:48;15.02;;;8.60;;
4650;SDS011;2338;49.602;8.722;2023-02-22T01:20:34;11.00;;;8.18;;
4650;SDS011;2338;49.602;8.722;2023-02-22T01:23:20;9.10;;;7.18;;
4650;SDS011;2338;49.602;8.722;2023-02-22T01:26:05;8.60;;;7.18;;
4650;SDS011;2338;49.602;8.722;2023-02-22T01:28:51;11.02;;;7.43;;
4650;SDS011;2338;49.602;8.722;2023-02-22T01:31:39;12.40;;;8.68;;
4650;SDS011;2338;49.602;8.722;2023-02-22T01:34:26;11.35;;;7.43;;
4650;SDS011;2338;49.602;8.722;2023-02-22T01:37:12;16.92;;;8.30;;
4650;SDS011;2338;49.602;8.722;2023-02-22T01:39:58;11.95;;;8.18;;
4650;SDS011;2338;49.602;8.722;2023-02-22T01:42:44;18.65;;;7.50;;
4650;SDS011;2338;49.602;8.722;2023-02-22T01:45:37;10.73;;;8.40;;
4650;SDS011;2338;49.602;8.722;2023-02-22T01:48:41;11.45;;;7.97;;
4650;SDS011;2338;49.602;8.722;2023-02-22T01:51:30;14.48;;;7.60;;
4650;SDS011;2338;49.602;8.722;2023-02-22T01:54:20;10.82;;;6.97;;
4650;SDS011;2338;49.602;8.722;2023-02-22T01:57:12;10.60;;;7.47;;
4650;SDS011;2338;49.602;8.722;2023-02-22T02:00:06;9.30;;;6.85;;
4650;SDS011;2338;49.602;8.722;2023-02-22T02:02:55;11.45;;;7.22;;
4650;SDS011;2338;49.602;8.722;2023-02-22T02:05:48;17.13;;;7.68;;
4650;SDS011;2338;49.602;8.722;2023-02-22T02:08:35;10.70;;;7.30;;
4650;SDS011;2338;49.602;8.722;2023-02-22T02:11:32;15.50;;;8.25;;
4650;SDS011;2338;49.602;8.722;2023-02-22T02:14:18;13.52;;;7.75;;
4650;SDS011;2338;49.602;8.722;2023-02-22T02:17:04;10.93;;;7.82;;
4650;SDS011;2338;49.602;8.722;2023-02-22T02:19:54;10.13;;;8.23;;
4650;SDS011;2338;49.602;8.722;2023-02-22T02:22:52;12.40;;;8.43;;
4650;SDS011;2338;49.602;8.722;2023-02-22T02:29:28;14.82;;;9.07;;
4650;SDS011;2338;49.602;8.722;2023-02-22T02:32:44;19.25;;;8.75;;
4650;SDS011;2338;49.602;8.722;2023-02-22T02:35:47;10.82;;;7.32;;
4650;SDS011;2338;49.602;8.722;2023-02-22T02:38:40;8.45;;;6.78;;
4650;SDS011;2338;49.602;8.722;2023-02-22T02:41:34;10.00;;;7.57;;
4650;SDS011;2338;49.602;8.722;2023-02-22T02:44:25;9.23;;;6.90;;
4650;SDS011;2338;49.602;8.722;2023-02-22T02:47:16;9.50;;;7.30;;
4650;SDS011;2338;49.602;8.722;2023-02-22T02:50:09;8.98;;;6.88;;
4650;SDS011;2338;49.602;8.722;2023-02-22T02:53:00;9.73;;;8.00;;
4650;SDS011;2338;49.602;8.722;2023-02-22T02:55:48;9.00;;;7.00;;
4650;SDS011;2338;49.602;8.722;2023-02-22T02:58:41;11.77;;;6.63;;
4650;SDS011;2338;49.602;8.722;2023-02-22T03:01:40;10.52;;;7.10;;
4650;SDS011;2338;49.602;8.722;2023-02-22T03:04:36;9.43;;;6.80;;
4650;SDS011;2338;49.602;8.722;2023-02-22T03:07:50;8.27;;;6.50;;
4650;SDS011;2338;49.602;8.722;2023-02-22T03:10:45;9.75;;;6.72;;
4650;SDS011;2338;49.602;8.722;2023-02-22T03:13:39;8.45;;;6.70;;
4650;SDS011;2338;49.602;8.722;2023-02-22T03:16:30;10.10;;;7.45;;
4650;SDS011;2338;49.602;8.722;2023-02-22T03:19:24;10.30;;;7.20;;
4650;SDS011;2338;49.602;8.722;2023-02-22T03:22:17;15.63;;;7.32;;
4650;SDS011;2338;49.602;8.722;2023-02-22T03:25:11;9.65;;;6.30;;
4650;SDS011;2338;49.602;8.722;2023-02-22T03:28:02;8.10;;;7.05;;
4650;SDS011;2338;49.602;8.722;2023-02-22T03:30:54;7.45;;;6.63;;
4650;SDS011;2338;49.602;8.722;2023-02-22T03:33:45;11.98;;;7.05;;
4650;SDS011;2338;49.602;8.722;2023-02-22T03:36:38;10.85;;;7.30;;
4650;SDS011;2338;49.602;8.722;2023-02-22T03:39:28;6.63;;;5.80;;
4650;SDS011;2338;49.602;8.722;2023-02-22T03:42:17;10.45;;;7.25;;
4650;SDS011;2338;49.602;8.722;2023-02-22T03:45:08;7.95;;;6.53;;
4650;SDS011;2338;49.602;8.722;2023-02-22T03:48:00;16.02;;;7.43;;
4650;SDS011;2338;49.602;8.722;2023-02-22T03:50:49;11.02;;;7.90;;
4650;SDS011;2338;49.602;8.722;2023-02-22T03:53:35;7.50;;;5.68;;
4650;SDS011;2338;49.602;8.722;2023-02-22T03:56:21;11.63;;;7.10;;
4650;SDS011;2338;49.602;8.722;2023-02-22T03:59:10;10.95;;;6.60;;
4650;SDS011;2338;49.602;8.722;2023-02-22T04:01:57;9.30;;;6.72;;
4650;SDS011;2338;49.602;8.722;2023-02-22T04:04:43;10.05;;;7.70;;
4650;SDS011;2338;49.602;8.722;2023-02-22T04:07:29;12.32;;;7.95;;
4650;SDS011;2338;49.602;8.722;2023-02-22T04:10:15;9.73;;;8.20;;
4650;SDS011;2338;49.602;8.722;2023-02-22T04:13:00;8.70;;;6.47;;
4650;SDS011;2338;49.602;8.722;2023-02-22T04:15:48;6.60;;;5.70;;
4650;SDS011;2338;49.602;8.722;2023-02-22T04:18:33;9.63;;;6.72;;
4650;SDS011;2338;49.602;8.722;2023-02-22T04:21:19;10.02;;;6.97;;
4650;SDS011;2338;49.602;8.722;2023-02-22T04:24:05;9.07;;;6.63;;
4650;SDS011;2338;49.602;8.722;2023-02-22T04:26:50;9.65;;;6.20;;
4650;SDS011;2338;49.602;8.722;2023-02-22T04:29:37;10.38;;;5.88;;
4650;SDS011;2338;49.602;8.722;2023-02-22T04:32:24;11.00;;;7.07;;
4650;SDS011;2338;49.602;8.722;2023-02-22T04:35:10;9.65;;;6.25;;
4650;SDS011;2338;49.602;8.722;2023-02-22T04:37:56;6.65;;;5.82;;
4650;SDS011;2338;49.602;8.722;2023-02-22T04:40:42;9.40;;;6.40;;
4650;SDS011;2338;49.602;8.722;2023-02-22T04:43:27;9.57;;;5.93;;
4650;SDS011;2338;49.602;8.722;2023-02-22T04:46:13;6.55;;;5.43;;
4650;SDS011;2338;49.602;8.722;2023-02-22T04:49:00;9.55;;;6.28;;
4650;SDS011;2338;49.602;8.722;2023-02-22T04:51:46;9.93;;;5.47;;
4650;SDS011;2338;49.602;8.722;2023-02-22T04:54:32;16.55;;;7.00;;
4650;SDS011;2338;49.602;8.722;2023-02-22T04:57:18;6.90;;;5.95;;
4650;SDS011;2338;49.602;8.722;2023-02-22T05:00:04;7.97;;;5.90;;
4650;SDS011;2338;49.602;8.722;2023-02-22T05:02:52;7.93;;;5.13;;
4650;SDS011;2338;49.602;8.722;2023-02-22T05:05:40;8.30;;;6.35;;
4650;SDS011;2338;49.602;8.722;2023-02-22T05:08:26;9.73;;;8.18;;
4650;SDS011;2338;49.602;8.722;2023-02-22T05:11:12;9.90;;;6.72;;
4650;SDS011;2338;49.602;8.722;2023-02-22T05:13:58;8.90;;;6.70;;
4650;SDS011;2338;49.602;8.722;2023-02-22T05:16:43;8.93;;;5.70;;
4650;SDS011;2338;49.602;8.722;2023-02-22T05:19:29;12.35;;;6.55;;
4650;SDS011;2338;49.602;8.722;2023-02-22T05:22:16;7.45;;;6.25;;
4650;SDS011;2338;49.602;8.722;2023-02-22T05:25:02;10.18;;;6.22;;
4650;SDS011;2338;49.602;8.722;2023-02-22T05:27:49;10.27;;;6.35;;
4650;SDS011;2338;49.602;8.722;2023-02-22T05:30:35;11.10;;;7.28;;
4650;SDS011;2338;49.602;8.722;2023-02-22T05:33:22;7.50;;;6.50;;
4650;SDS011;2338;49.602;8.722;2023-02-22T05:36:08;11.07;;;6.55;;
4650;SDS011;2338;49.602;8.722;2023-02-22T05:38:55;17.00;;;7.88;;
4650;SDS011;2338;49.602;8.722;2023-02-22T05:41:41;11.48;;;6.43;;
4650;SDS011;2338;49.602;8.722;2023-02-22T05:44:27;11.00;;;7.75;;
4650;SDS011;2338;49.602;8.722;2023-02-22T05:47:12;13.77;;;7.70;;
4650;SDS011;2338;49.602;8.722;2023-02-22T05:49:58;9.40;;;7.68;;
4650;SDS011;2338;49.602;8.722;2023-02-22T05:52:45;16.77;;;8.13;;
4650;SDS011;2338;49.602;8.722;2023-02-22T05:55:32;12.82;;;7.30;;
4650;SDS011;2338;49.602;8.722;2023-02-22T05:58:18;14.45;;;7.22;;
4650;SDS011;2338;49.602;8.722;2023-02-22T06:01:04;9.20;;;7.13;;
4650;SDS011;2338;49.602;8.722;2023-02-22T06:03:50;9.02;;;7.15;;
4650;SDS011;2338;49.602;8.722;2023-02-22T06:06:36;8.82;;;6.75;;
4650;SDS011;2338;49.602;8.722;2023-02-22T06:09:22;9.32;;;6.63;;
4650;SDS011;2338;49.602;8.722;2023-02-22T06:12:09;8.70;;;7.35;;
4650;SDS011;2338;49.602;8.722;2023-02-22T06:14:54;9.60;;;5.82;;
4650;SDS011;2338;49.602;8.722;2023-02-22T06:17:40;13.20;;;7.10;;
4650;SDS011;2338;49.602;8.722;2023-02-22T06:20:27;8.80;;;7.18;;
4650;SDS011;2338;49.602;8.722;2023-02-22T06:23:13;10.20;;;7.55;;
4650;SDS011;2338;49.602;8.722;2023-02-22T06:25:59;13.32;;;7.07;;
4650;SDS011;2338;49.602;8.722;2023-02-22T06:28:46;10.07;;;7.95;;
4650;SDS011;2338;49.602;8.722;2023-02-22T06:31:32;10.05;;;7.00;;
4650;SDS011;2338;49.602;8.722;2023-02-22T06:34:18;11.10;;;8.05;;
4650;SDS011;2338;49.602;8.722;2023-02-22T06:37:05;11.68;;;8.85;;
4650;SDS011;2338;49.602;8.722;2023-02-22T06:39:51;10.52;;;8.05;;
4650;SDS011;2338;49.602;8.722;2023-02-22T06:42:37;16.80;;;9.82;;
4650;SDS011;2338;49.602;8.722;2023-02-22T06:45:24;11.98;;;7.90;;
4650;SDS011;2338;49.602;8.722;2023-02-22T06:48:10;10.65;;;7.72;;
4650;SDS011;2338;49.602;8.722;2023-02-22T06:50:55;11.07;;;7.00;;
4650;SDS011;2338;49.602;8.722;2023-02-22T06:53:41;9.68;;;6.93;;
4650;SDS011;2338;49.602;8.722;2023-02-22T06:56:27;11.13;;;8.07;;
4650;SDS011;2338;49.602;8.722;2023-02-22T06:59:13;9.75;;;7.57;;
4650;SDS011;2338;49.602;8.722;2023-02-22T07:02:00;13.10;;;6.85;;
4650;SDS011;2338;49.602;8.722;2023-02-22T07:04:46;14.80;;;6.97;;
4650;SDS011;2338;49.602;8.722;2023-02-22T07:07:32;15.90;;;7.72;;
4650;SDS011;2338;49.602;8.722;2023-02-22T07:10:19;14.10;;;8.02;;
4650;SDS011;2338;49.602;8.722;2023-02-22T07:13:06;15.55;;;9.10;;
4650;SDS011;2338;49.602;8.722;2023-02-22T07:15:52;33.63;;;20.08;;
4650;SDS011;2338;49.602;8.722;2023-02-22T07:18:39;41.13;;;23.95;;
4650;SDS011;2338;49.602;8.722;2023-02-22T07:21:25;37.92;;;23.33;;
4650;SDS011;2338;49.602;8.722;2023-02-22T07:24:11;23.13;;;13.45;;
4650;SDS011;2338;49.602;8.722;2023-02-22T07:26:57;29.95;;;16.13;;
4650;SDS011;2338;49.602;8.722;2023-02-22T07:29:45;26.77;;;14.00;;
4650;SDS011;2338;49.602;8.722;2023-02-22T07:32:30;29.48;;;17.08;;
4650;SDS011;2338;49.602;8.722;2023-02-22T07:35:19;42.13;;;23.67;;
4650;SDS011;2338;49.602;8.722;2023-02-22T07:38:06;33.38;;;19.52;;
4650;SDS011;2338;49.602;8.722;2023-02-22T07:40:53;26.77;;;15.85;;
4650;SDS011;2338;49.602;8.722;2023-02-22T07:43:40;24.83;;;14.93;;
4650;SDS011;2338;49.602;8.722;2023-02-22T07:46:26;33.45;;;18.63;;
4650;SDS011;2338;49.602;8.722;2023-02-22T07:49:12;37.75;;;20.58;;
4650;SDS011;2338;49.602;8.722;2023-02-22T07:51:59;29.35;;;18.75;;
4650;SDS011;2338;49.602;8.722;2023-02-22T07:54:45;28.50;;;18.02;;
4650;SDS011;2338;49.602;8.722;2023-02-22T07:57:32;38.22;;;19.83;;
4650;SDS011;2338;49.602;8.722;2023-02-22T08:00:20;27.75;;;16.80;;
4650;SDS011;2338;49.602;8.722;2023-02-22T08:03:08;33.13;;;16.48;;
4650;SDS011;2338;49.602;8.722;2023-02-22T08:05:55;37.70;;;20.77;;
4650;SDS011;2338;49.602;8.722;2023-02-22T08:08:44;26.48;;;15.38;;
4650;SDS011;2338;49.602;8.722;2023-02-22T08:11:30;21.45;;;14.32;;
4650;SDS011;2338;49.602;8.722;2023-02-22T08:14:16;24.83;;;13.52;;
4650;SDS011;2338;49.602;8.722;2023-02-22T08:17:02;27.00;;;15.73;;
4650;SDS011;2338;49.602;8.722;2023-02-22T08:19:47;26.50;;;15.10;;
4650;SDS011;2338;49.602;8.722;2023-02-22T08:22:33;24.33;;;14.82;;
4650;SDS011;2338;49.602;8.722;2023-02-22T08:25:21;23.13;;;12.87;;
4650;SDS011;2338;49.602;8.722;2023-02-22T08:28:10;18.73;;;14.20;;
4650;SDS011;2338;49.602;8.722;2023-02-22T08:30:57;27.33;;;13.02;;
4650;SDS011;2338;49.602;8.722;2023-02-22T08:33:45;17.52;;;12.45;;
4650;SDS011;2338;49.602;8.722;2023-02-22T08:36:32;16.95;;;11.68;;
4650;SDS011;2338;49.602;8.722;2023-02-22T08:39:18;21.30;;;13.23;;
4650;SDS011;2338;49.602;8.722;2023-02-22T08:42:05;19.70;;;13.13;;
4650;SDS011;2338;49.602;8.722;2023-02-22T08:44:52;16.13;;;11.65;;
4650;SDS011;2338;49.602;8.722;2023-02-22T08:47:37;12.95;;;9.98;;
4650;SDS011;2338;49.602;8.722;2023-02-22T08:50:24;15.80;;;10.20;;
4650;SDS011;2338;49.602;8.722;2023-02-22T08:53:11;15.77;;;10.60;;
4650;SDS011;2338;49.602;8.722;2023-02-22T08:55:58;13.70;;;10.68;;
4650;SDS011;2338;49.602;8.722;2023-02-22T08:58:45;16.87;;;11.23;;
4650;SDS011;2338;49.602;8.722;2023-02-22T09:01:46;18.23;;;11.60;;
4650;SDS011;2338;49.602;8.722;2023-02-22T09:04:31;23.73;;;11.63;;
4650;SDS011;2338;49.602;8.722;2023-02-22T09:07:17;30.90;;;13.37;;
4650;SDS011;2338;49.602;8.722;2023-02-22T09:10:03;27.00;;;14.00;;
4650;SDS011;2338;49.602;8.722;2023-02-22T09:12:49;27.60;;;15.07;;
4650;SDS011;2338;49.602;8.722;2023-02-22T09:15:36;22.63;;;14.67;;
4650;SDS011;2338;49.602;8.722;2023-02-22T09:18:25;23.10;;;14.00;;
4650;SDS011;2338;49.602;8.722;2023-02-22T09:21:11;26.07;;;14.00;;
4650;SDS011;2338;49.602;8.722;2023-02-22T09:23:57;19.33;;;12.80;;
4650;SDS011;2338;49.602;8.722;2023-02-22T09:26:48;27.33;;;13.03;;
4650;SDS011;2338;49.602;8.722;2023-02-22T09:29:37;24.50;;;14.30;;
4650;SDS011;2338;49.602;8.722;2023-02-22T09:32:23;19.97;;;13.60;;
4650;SDS011;2338;49.602;8.722;2023-02-22T09:35:11;22.37;;;14.10;;
4650;SDS011;2338;49.602;8.722;2023-02-22T09:37:58;21.40;;;12.80;;
4650;SDS011;2338;49.602;8.722;2023-02-22T09:40:44;33.37;;;13.07;;
4650;SDS011;2338;49.602;8.722;2023-02-22T09:43:35;22.13;;;14.17;;
4650;SDS011;2338;49.602;8.722;2023-02-22T09:46:26;27.37;;;14.20;;
4650;SDS011;2338;49.602;8.722;2023-02-22T09:49:18;23.77;;;12.97;;
4650;SDS011;2338;49.602;8.722;2023-02-22T09:52:10;24.20;;;14.57;;
4650;SDS011;2338;49.602;8.722;2023-02-22T09:55:06;15.60;;;11.97;;
4650;SDS011;2338;49.602;8.722;2023-02-22T09:57:54;25.87;;;12.40;;
4650;SDS011;2338;49.602;8.722;2023-02-22T10:00:41;20.10;;;12.43;;
4650;SDS011;2338;49.602;8.722;2023-02-22T10:03:32;21.60;;;13.13;;
4650;SDS011;2338;49.602;8.722;2023-02-22T10:06:23;19.40;;;11.57;;
4650;SDS011;2338;49.602;8.722;2023-02-22T10:09:10;22.80;;;11.97;;
4650;SDS011;2338;49.602;8.722;2023-02-22T10:11:56;13.47;;;10.07;;
4650;SDS011;2338;49.602;8.722;2023-02-22T10:14:54;21.47;;;11.90;;
4650;SDS011;2338;49.602;8.722;2023-02-22T10:18:19;15.47;;;11.63;;
4650;SDS011;2338;49.602;8.722;2023-02-22T10:21:26;18.27;;;12.70;;
4650;SDS011;2338;49.602;8.722;2023-02-22T10:24:33;16.80;;;11.47;;
4650;SDS011;2338;49.602;8.722;2023-02-22T10:27:29;15.50;;;11.20;;
4650;SDS011;2338;49.602;8.722;2023-02-22T10:30:18;18.50;;;11.90;;
4650;SDS011;2338;49.602;8.722;2023-02-22T10:33:07;18.00;;;11.40;;
4650;SDS011;2338;49.602;8.722;2023-02-22T10:35:57;16.57;;;11.53;;
4650;SDS011;2338;49.602;8.722;2023-02-22T10:38:44;20.00;;;11.17;;
4650;SDS011;2338;49.602;8.722;2023-02-22T10:41:37;14.50;;;11.50;;
4650;SDS011;2338;49.602;8.722;2023-02-22T10:44:28;18.37;;;11.57;;
4650;SDS011;2338;49.602;8.722;2023-02-22T10:47:14;17.20;;;13.10;;
4650;SDS011;2338;49.602;8.722;2023-02-22T10:50:01;18.43;;;11.43;;
4650;SDS011;2338;49.602;8.722;2023-02-22T10:52:50;17.43;;;10.27;;
4650;SDS011;2338;49.602;8.722;2023-02-22T10:56:03;15.23;;;10.97;;
4650;SDS011;2338;49.602;8.722;2023-02-22T10:58:54;12.37;;;9.80;;
4650;SDS011;2338;49.602;8.722;2023-02-22T11:01:42;16.90;;;9.97;;
4650;SDS011;2338;49.602;8.722;2023-02-22T11:04:27;16.40;;;11.00;;
4650;SDS011;2338;49.602;8.722;2023-02-22T11:07:29;13.63;;;10.07;;
4650;SDS011;2338;49.602;8.722;2023-02-22T11:10:21;14.87;;;9.70;;
4650;SDS011;2338;49.602;8.722;2023-02-22T11:13:15;14.70;;;9.10;;
4650;SDS011;2338;49.602;8.722;2023-02-22T11:16:15;15.63;;;9.43;;
4650;SDS011;2338;49.602;8.722;2023-02-22T11:19:05;13.60;;;10.23;;
4650;SDS011;2338;49.602;8.722;2023-02-22T11:22:08;15.70;;;10.10;;
4650;SDS011;2338;49.602;8.722;2023-02-22T11:24:58;16.20;;;10.00;;
4650;SDS011;2338;49.602;8.722;2023-02-22T11:27:46;23.13;;;10.40;;
4650;SDS011;2338;49.602;8.722;2023-02-22T11:30:32;14.40;;;9.67;;
4650;SDS011;2338;49.602;8.722;2023-02-22T11:33:21;16.80;;;11.17;;
4650;SDS011;2338;49.602;8.722;2023-02-22T11:36:10;17.60;;;11.60;;
4650;SDS011;2338;49.602;8.722;2023-02-22T11:38:59;18.50;;;11.93;;
4650;SDS011;2338;49.602;8.722;2023-02-22T11:41:48;18.23;;;10.77;;
4650;SDS011;2338;49.602;8.722;2023-02-22T11:44:34;19.73;;;11.40;;
4650;SDS011;2338;49.602;8.722;2023-02-22T11:47:20;15.93;;;11.03;;
4650;SDS011;2338;49.602;8.722;2023-02-22T11:50:10;16.00;;;10.60;;
4650;SDS011;2338;49.602;8.722;2023-02-22T11:53:13;15.20;;;9.73;;
4650;SDS011;2338;49.602;8.722;2023-02-22T11:56:11;15.73;;;11.70;;
4650;SDS011;2338;49.602;8.722;2023-02-22T11:59:02;17.27;;;11.10;;
4650;SDS011;2338;49.602;8.722;2023-02-22T12:01:55;13.70;;;10.10;;
4650;SDS011;2338;49.602;8.722;2023-02-22T12:05:00;11.70;;;9.03;;
4650;SDS011;2338;49.602;8.722;2023-02-22T12:07:59;17.27;;;10.97;;
4650;SDS011;2338;49.602;8.722;2023-02-22T12:10:54;14.13;;;10.37;;
4650;SDS011;2338;49.602;8.722;2023-02-22T12:13:50;19.47;;;12.70;;
4650;SDS011;2338;49.602;8.722;2023-02-22T12:16:52;21.40;;;12.40;;
4650;SDS011;2338;49.602;8.722;2023-02-22T12:20:03;21.03;;;12.77;;
4650;SDS011;2338;49.602;8.722;2023-02-22T12:22:59;16.07;;;11.77;;
4650;SDS011;2338;49.602;8.722;2023-02-22T12:25:55;20.00;;;12.83;;
4650;SDS011;2338;49.602;8.722;2023-02-22T12:28:46;19.03;;;13.20;;
4650;SDS011;2338;49.602;8.722;2023-02-22T12:31:42;18.13;;;12.20;;
4650;SDS011;2338;49.602;8.722;2023-02-22T12:34:32;17.73;;;13.20;;
4650;SDS011;2338;49.602;8.722;2023-02-22T12:37:25;18.63;;;11.40;;
4650;SDS011;2338;49.602;8.722;2023-02-22T12:40:15;15.97;;;11.63;;
4650;SDS011;2338;49.602;8.722;2023-02-22T12:43:09;18.90;;;12.40;;
4650;SDS011;2338;49.602;8.722;2023-02-22T12:46:01;17.33;;;12.00;;
4650;SDS011;2338;49.602;8.722;2023-02-22T12:48:51;19.43;;;11.90;;
4650;SDS011;2338;49.602;8.722;2023-02-22T12:51:43;16.60;;;12.57;;
4650;SDS011;2338;49.602;8.722;2023-02-22T12:54:40;15.43;;;12.20;;
4650;SDS011;2338;49.602;8.722;2023-02-22T12:57:35;15.13;;;11.40;;
4650;SDS011;2338;49.602;8.722;2023-02-22T13:00:27;15.97;;;11.07;;
4650;SDS011;2338;49.602;8.722;2023-02-22T13:03:29;17.10;;;11.57;;
4650;SDS011;2338;49.602;8.722;2023-02-22T13:06:22;15.80;;;11.60;;
4650;SDS011;2338;49.602;8.722;2023-02-22T13:09:32;14.57;;;11.17;;
4650;SDS011;2338;49.602;8.722;2023-02-22T13:12:40;16.40;;;10.53;;
4650;SDS011;2338;49.602;8.722;2023-02-22T13:15:35;13.70;;;10.60;;
4650;SDS011;2338;49.602;8.722;2023-02-22T13:18:27;21.83;;;11.70;;
4650;SDS011;2338;49.602;8.722;2023-02-22T13:21:20;16.37;;;11.30;;
4650;SDS011;2338;49.602;8.722;2023-02-22T13:24:14;15.23;;;10.50;;
4650;SDS011;2338;49.602;8.722;2023-02-22T13:27:07;17.40;;;10.10;;
4650;SDS011;2338;49.602;8.722;2023-02-22T13:29:58;19.20;;;10.50;;
4650;SDS011;2338;49.602;8.722;2023-02-22T13:32:49;15.30;;;10.60;;
4650;SDS011;2338;49.602;8.722;2023-02-22T13:35:55;13.90;;;10.43;;
4650;SDS011;2338;49.602;8.722;2023-02-22T13:42:21;14.57;;;10.83;;
4650;SDS011;2338;49.602;8.722;2023-02-22T13:45:38;17.13;;;10.57;;
4650;SDS011;2338;49.602;8.722;2023-02-22T13:48:39;16.60;;;11.70;;
4650;SDS011;2338;49.602;8.722;2023-02-22T13:51:54;13.93;;;10.70;;
4650;SDS011;2338;49.602;8.722;2023-02-22T13:54:42;12.60;;;11.00;;
4650;SDS011;2338;49.602;8.722;2023-02-22T13:57:32;17.40;;;11.63;;
4650;SDS011;2338;49.602;8.722;2023-02-22T14:00:37;14.33;;;10.00;;
4650;SDS011;2338;49.602;8.722;2023-02-22T14:03:28;21.90;;;11.70;;
4650;SDS011;2338;49.602;8.722;2023-02-22T14:09:41;14.23;;;9.77;;
4650;SDS011;2338;49.602;8.722;2023-02-22T14:12:47;13.57;;;10.03;;
4650;SDS011;2338;49.602;8.722;2023-02-22T14:15:33;16.00;;;10.97;;
4650;SDS011;2338;49.602;8.722;2023-02-22T14:18:20;16.87;;;10.30;;
4650;SDS011;2338;49.602;8.722;2023-02-22T14:21:06;19.83;;;11.90;;
4650;SDS011;2338;49.602;8.722;2023-02-22T14:23:54;14.53;;;11.60;;
4650;SDS011;2338;49.602;8.722;2023-02-22T14:26:53;20.17;;;13.90;;
4650;SDS011;2338;49.602;8.722;2023-02-22T14:29:47;16.07;;;12.03;;
4650;SDS011;2338;49.602;8.722;2023-02-22T14:32:36;17.57;;;11.67;;
4650;SDS011;2338;49.602;8.722;2023-02-22T14:35:23;17.97;;;11.77;;
4650;SDS011;2338;49.602;8.722;2023-02-22T14:38:15;20.30;;;11.60;;
4650;SDS011;2338;49.602;8.722;2023-02-22T14:41:03;15.17;;;11.27;;
4650;SDS011;2338;49.602;8.722;2023-02-22T14:43:51;18.07;;;12.80;;
4650;SDS011;2338;49.602;8.722;2023-02-22T14:46:39;19.73;;;12.67;;
4650;SDS011;2338;49.602;8.722;2023-02-22T14:49:34;19.33;;;13.17;;
4650;SDS011;2338;49.602;8.722;2023-02-22T14:52:27;18.87;;;12.17;;
4650;SDS011;2338;49.602;8.722;2023-02-22T14:55:15;20.83;;;14.33;;
4650;SDS011;2338;49.602;8.722;2023-02-22T14:58:06;17.90;;;12.13;;
4650;SDS011;2338;49.602;8.722;2023-02-22T15:00:54;19.97;;;12.97;;
4650;SDS011;2338;49.602;8.722;2023-02-22T15:03:41;23.20;;;13.23;;
4650;SDS011;2338;49.602;8.722;2023-02-22T15:06:27;20.10;;;13.13;;
4650;SDS011;2338;49.602;8.722;2023-02-22T15:09:17;19.17;;;12.67;;
4650;SDS011;2338;49.602;8.722;2023-02-22T15:12:11;18.70;;;13.40;;
4650;SDS011;2338;49.602;8.722;2023-02-22T15:15:11;25.20;;;13.67;;
4650;SDS011;2338;49.602;8.722;2023-02-22T15:18:04;16.93;;;12.87;;
4650;SDS011;2338;49.602;8.722;2023-02-22T15:21:05;19.17;;;13.23;;
4650;SDS011;2338;49.602;8.722;2023-02-22T15:23:55;19.40;;;12.60;;
4650;SDS011;2338;49.602;8.722;2023-02-22T15:26:44;15.23;;;12.37;;
4650;SDS011;2338;49.602;8.722;2023-02-22T15:29:31;17.67;;;12.20;;
4650;SDS011;2338;49.602;8.722;2023-02-22T15:32:29;17.73;;;12.57;;
4650;SDS011;2338;49.602;8.722;2023-02-22T15:35:17;23.67;;;14.60;;
4650;SDS011;2338;49.602;8.722;2023-02-22T15:38:17;25.10;;;13.53;;
4650;SDS011;2338;49.602;8.722;2023-02-22T15:41:05;19.27;;;12.17;;
4650;SDS011;2338;49.602;8.722;2023-02-22T15:43:57;17.87;;;12.50;;
4650;SDS011;2338;49.602;8.722;2023-02-22T15:46:45;21.40;;;13.20;;
4650;SDS011;2338;49.602;8.722;2023-02-22T15:49:30;17.90;;;12.10;;
4650;SDS011;2338;49.602;8.722;2023-02-22T15:52:21;19.53;;;11.97;;
4650;SDS011;2338;49.602;8.722;2023-02-22T15:55:09;21.57;;;12.20;;
4650;SDS011;2338;49.602;8.722;2023-02-22T15:57:57;24.17;;;10.93;;
4650;SDS011;2338;49.602;8.722;2023-02-22T16:00:48;17.73;;;11.67;;
4650;SDS011;2338;49.602;8.722;2023-02-22T16:03:42;16.10;;;10.87;;
4650;SDS011;2338;49.602;8.722;2023-02-22T16:06:30;19.20;;;10.47;;
4650;SDS011;2338;49.602;8.722;2023-02-22T16:09:18;15.33;;;10.40;;
4650;SDS011;2338;49.602;8.722;2023-02-22T16:12:08;17.03;;;11.57;;
4650;SDS011;2338;49.602;8.722;2023-02-22T16:15:13;18.30;;;10.47;;
4650;SDS011;2338;49.602;8.722;2023-02-22T16:18:17;12.80;;;10.00;;
4650;SDS011;2338;49.602;8.722;2023-02-22T16:21:10;15.87;;;12.10;;
4650;SDS011;2338;49.602;8.722;2023-02-22T16:23:56;34.80;;;19.47;;
4650;SDS011;2338;49.602;8.722;2023-02-22T16:26:47;25.33;;;14.87;;
4650;SDS011;2338;49.602;8.722;2023-02-22T16:30:01;16.37;;;10.33;;
4650;SDS011;2338;49.602;8.722;2023-02-22T16:32:52;19.20;;;11.93;;
4650;SDS011;2338;49.602;8.722;2023-02-22T16:35:41;18.80;;;11.20;;
4650;SDS011;2338;49.602;8.722;2023-02-22T16:38:34;17.87;;;10.60;;
4650;SDS011;2338;49.602;8.722;2023-02-22T16:41:21;16.13;;;12.00;;
4650;SDS011;2338;49.602;8.722;2023-02-22T16:44:07;18.83;;;12.77;;
4650;SDS011;2338;49.602;8.722;2023-02-22T16:46:55;22.60;;;11.80;;
4650;SDS011;2338;49.602;8.722;2023-02-22T16:49:43;15.50;;;11.27;;
4650;SDS011;2338;49.602;8.722;2023-02-22T16:52:30;21.93;;;12.70;;
4650;SDS011;2338;49.602;8.722;2023-02-22T16:55:16;16.83;;;12.50;;
4650;SDS011;2338;49.602;8.722;2023-02-22T16:58:03;17.23;;;11.70;;
4650;SDS011;2338;49.602;8.722;2023-02-22T17:00:49;18.03;;;11.93;;
4650;SDS011;2338;49.602;8.722;2023-02-22T17:03:35;18.13;;;11.27;;
4650;SDS011;2338;49.602;8.722;2023-02-22T17:06:21;17.67;;;12.77;;
4650;SDS011;2338;49.602;8.722;2023-02-22T17:09:08;17.47;;;11.93;;
4650;SDS011;2338;49.602;8.722;2023-02-22T17:11:54;19.90;;;12.33;;
4650;SDS011;2338;49.602;8.722;2023-02-22T17:14:40;12.47;;;10.30;;
4650;SDS011;2338;49.602;8.722;2023-02-22T17:17:29;18.83;;;12.37;;
4650;SDS011;2338;49.602;8.722;2023-02-22T17:20:16;16.10;;;11.30;;
4650;SDS011;2338;49.602;8.722;2023-02-22T17:23:12;22.37;;;12.00;;
4650;SDS011;2338;49.602;8.722;2023-02-22T17:25:59;19.53;;;11.30;;